Time;durP1;ratioP1;P1;durP2;ratioP2;P2;SDS_P1;SDS_P2;PMS_P1;PMS_P2;Temp;Humidity;BMP_temperature;BMP_pressure;BME280_temperature;BME280_humidity;BME280_pressure;Samples;Min_cycle;Max_cycle;Signal;HPM_P1;HPM_P2
2021/12/25 00:01:24;;;;;;;0.30;0.30;;;-0.80;99.90;;;;;;5053509;28;20289;-88
2021/12/25 00:03:54;;;;;;;0.50;0.50;;;-0.80;99.90;;;;;;5070628;28;20555;-86
2021/12/25 00:06:20;;;;;;;5.75;1.42;;;0.40;99.90;;;;;;5056140;28;20099;-86
2021/12/25 00:08:46;;;;;;;1.17;1.10;;;-0.80;99.90;;;;;;5064917;28;20052;-86
2021/12/25 00:11:12;;;;;;;0.40;0.40;;;0.10;99.90;;;;;;5052889;28;20042;-86
2021/12/25 00:13:38;;;;;;;1.20;0.73;;;-0.90;99.90;;;;;;5064147;28;20102;-86
2021/12/25 00:16:05;;;;;;;0.50;0.50;;;-0.50;99.90;;;;;;5056340;28;20128;-86
2021/12/25 00:18:31;;;;;;;0.68;0.57;;;-1.00;99.90;;;;;;5067421;28;20041;-86
2021/12/25 00:20:57;;;;;;;1.05;0.57;;;-1.00;99.90;;;;;;5059224;28;20118;-86
2021/12/25 00:23:24;;;;;;;1.90;0.90;;;0.10;99.90;;;;;;5070828;28;20037;-86
2021/12/25 00:25:57;;;;;;;1.55;1.00;;;-1.10;99.90;;;;;;5059545;28;20049;-86
2021/12/25 00:31:11;;;;;;;0.45;0.40;;;-1.20;99.90;;;;;;5075320;28;20056;-85
2021/12/25 00:36:19;;;;;;;1.15;0.77;;;-0.90;99.90;;;;;;5069651;28;20052;-87
2021/12/25 00:38:46;;;;;;;0.60;0.60;;;-0.60;99.90;;;;;;5083710;28;20085;-86
2021/12/25 00:41:13;;;;;;;;;;;-1.30;99.90;;;;;;5046809;28;20092;-86
2021/12/25 00:43:40;;;;;;;3.88;0.85;;;-0.80;99.90;;;;;;5092903;28;19928;-86
2021/12/25 00:46:05;;;;;;;0.57;0.57;;;-0.70;99.90;;;;;;5059391;28;20051;-86
2021/12/25 00:48:31;;;;;;;1.27;0.50;;;-0.50;99.90;;;;;;5085877;28;20044;-88
2021/12/25 00:50:57;;;;;;;2.28;0.70;;;-0.80;99.90;;;;;;5048908;28;20052;-87
2021/12/25 00:53:23;;;;;;;0.90;0.70;;;-0.40;99.90;;;;;;5069274;28;20045;-86
2021/12/25 00:55:49;;;;;;;1.08;0.63;;;-1.50;99.90;;;;;;5066726;28;20037;-87
2021/12/25 00:58:15;;;;;;;0.98;0.93;;;-1.50;99.90;;;;;;5080115;28;20115;-86
2021/12/25 01:00:42;;;;;;;3.87;1.90;;;-1.60;99.90;;;;;;5033165;28;20045;-86
2021/12/25 01:03:09;;;;;;;1.30;0.35;;;-1.60;99.90;;;;;;5054825;28;20125;-85
2021/12/25 01:05:35;;;;;;;1.00;0.43;;;-1.60;99.90;;;;;;5053611;28;20049;-87
2021/12/25 01:08:01;;;;;;;0.50;0.50;;;-1.60;99.90;;;;;;5072100;28;20052;-86
2021/12/25 01:10:29;;;;;;;2.05;0.50;;;-0.80;99.90;;;;;;5075697;28;20040;-86
2021/12/25 01:13:09;;;;;;;0.40;0.30;;;-1.70;99.90;;;;;;5074982;28;20068;-86
2021/12/25 01:16:02;;;;;;;1.63;1.35;;;-1.80;99.90;;;;;;5079675;28;20499;-88
2021/12/25 01:24:12;;;;;;;0.38;0.32;;;-1.90;99.90;;;;;;5039878;28;20045;-85
2021/12/25 01:37:35;;;;;;;0.35;0.20;;;-2.60;99.90;;;;;;5085192;28;20374;-85
2021/12/25 01:40:57;;;;;;;0.35;0.35;;;-1.40;99.90;;;;;;5046369;28;20082;-85
2021/12/25 01:48:15;;;;;;;0.32;0.32;;;-1.90;99.90;;;;;;5074381;28;20040;-86
2021/12/25 01:50:41;;;;;;;0.20;0.20;;;-2.20;99.90;;;;;;5064963;28;20517;-86
2021/12/25 01:53:07;;;;;;;1.00;1.00;;;-1.40;99.90;;;;;;5059747;28;20075;-85
2021/12/25 01:55:34;;;;;;;0.22;0.22;;;-1.90;99.90;;;;;;5077706;28;20042;-85
2021/12/25 01:58:00;;;;;;;;;;;-2.30;99.90;;;;;;5092891;28;20696;-86
2021/12/25 02:00:40;;;;;;;0.30;0.30;;;-2.00;99.90;;;;;;5066266;28;20010;-85
2021/12/25 02:03:08;;;;;;;0.70;0.70;;;-2.30;99.90;;;;;;5051230;28;20055;-86
2021/12/25 02:05:35;;;;;;;0.45;0.45;;;-2.40;99.90;;;;;;5061542;28;20048;-85
2021/12/25 02:08:00;;;;;;;0.57;0.40;;;-2.40;99.90;;;;;;5084540;28;20619;-85
2021/12/25 02:10:26;;;;;;;0.65;0.40;;;-2.40;99.90;;;;;;5063088;28;20123;-86
2021/12/25 02:12:52;;;;;;;0.40;0.40;;;-2.40;99.90;;;;;;5059573;28;20053;-86
2021/12/25 02:15:21;;;;;;;1.02;1.02;;;-2.50;99.90;;;;;;5044112;28;20371;-86
2021/12/25 02:20:18;;;;;;;0.20;0.20;;;-2.50;99.90;;;;;;5063524;28;20044;-86
2021/12/25 02:22:45;;;;;;;2.72;2.58;;;-2.50;99.90;;;;;;5049964;28;20054;-87
2021/12/25 02:25:11;;;;;;;0.57;0.43;;;-2.50;99.90;;;;;;5051387;28;20055;-86
2021/12/25 02:27:37;;;;;;;1.70;0.53;;;-2.60;99.90;;;;;;5051327;28;20063;-86
2021/12/25 02:30:06;;;;;;;5.90;2.13;;;-2.60;99.90;;;;;;5063406;28;20160;-86
2021/12/25 02:32:32;;;;;;;0.50;0.50;;;-2.60;99.90;;;;;;5050949;28;20784;-86
2021/12/25 02:34:58;;;;;;;0.57;0.57;;;-2.60;99.90;;;;;;5079146;28;20036;-87
2021/12/25 02:37:23;;;;;;;2.23;1.73;;;-2.60;99.90;;;;;;5068514;28;20040;-86
2021/12/25 02:39:50;;;;;;;0.20;0.20;;;-2.70;99.90;;;;;;5041149;28;20048;-87
2021/12/25 02:42:16;;;;;;;0.88;0.65;;;-2.70;99.90;;;;;;5071279;28;20053;-87
2021/12/25 02:44:42;;;;;;;0.32;0.32;;;-2.70;99.90;;;;;;5076148;28;20460;-86
2021/12/25 02:47:18;;;;;;;0.43;0.43;;;-2.70;99.90;;;;;;5087760;28;20067;-86
2021/12/25 02:49:51;;;;;;;0.60;0.43;;;-2.80;99.90;;;;;;5043882;28;20474;-86
2021/12/25 02:52:18;;;;;;;0.30;0.30;;;-2.70;99.90;;;;;;5040623;28;20040;-86
2021/12/25 02:54:44;;;;;;;0.30;0.30;;;-2.80;99.90;;;;;;5038680;28;20048;-86
2021/12/25 02:57:14;;;;;;;0.30;0.28;;;-2.20;99.90;;;;;;5060606;28;20040;-86
2021/12/25 02:59:40;;;;;;;0.38;0.35;;;-2.80;99.90;;;;;;5077266;28;20043;-87
2021/12/25 03:02:18;;;;;;;0.30;0.30;;;-2.00;99.90;;;;;;5090543;28;20036;-86
2021/12/25 03:04:47;;;;;;;0.60;0.60;;;-2.80;99.90;;;;;;5064020;28;20506;-86
2021/12/25 03:07:13;;;;;;;2.58;0.43;;;-2.90;99.90;;;;;;5082048;28;20038;-86
2021/12/25 03:09:40;;;;;;;0.38;0.30;;;-2.90;99.90;;;;;;5059930;28;20044;-86
2021/12/25 03:12:08;;;;;;;;;;;-3.00;99.90;;;;;;5067214;28;20045;-87
2021/12/25 03:15:00;;;;;;;4.07;0.43;;;-3.00;99.90;;;;;;5071180;28;19924;-86
2021/12/25 03:17:25;;;;;;;0.68;0.68;;;-2.90;99.90;;;;;;5054676;28;20073;-87
2021/12/25 03:19:54;;;;;;;0.37;0.37;;;-3.00;99.90;;;;;;5075651;28;20071;-87
2021/12/25 03:22:20;;;;;;;0.32;0.28;;;-3.00;99.90;;;;;;5071526;28;20040;-86
2021/12/25 03:25:09;;;;;;;0.23;0.23;;;-3.10;99.90;;;;;;5071719;28;20055;-86
2021/12/25 03:27:36;;;;;;;0.52;0.50;;;-3.10;99.90;;;;;;5075387;28;20055;-86
2021/12/25 03:30:03;;;;;;;0.35;0.35;;;-2.80;99.90;;;;;;5073160;28;20052;-86
2021/12/25 03:32:29;;;;;;;0.50;0.50;;;-3.10;99.90;;;;;;5079150;28;20056;-87
2021/12/25 03:34:55;;;;;;;0.30;0.30;;;-3.10;99.90;;;;;;5059205;28;20047;-88
2021/12/25 03:37:20;;;;;;;0.20;0.20;;;-3.20;99.90;;;;;;5075245;28;20040;-86
2021/12/25 03:39:46;;;;;;;0.55;0.55;;;-3.20;99.90;;;;;;5069940;28;20543;-86
2021/12/25 03:42:12;;;;;;;0.20;0.20;;;-3.20;99.90;;;;;;5074660;28;20397;-86
2021/12/25 03:44:38;;;;;;;0.47;0.28;;;-2.40;99.90;;;;;;5085309;28;20043;-87
2021/12/25 03:47:13;;;;;;;0.10;0.10;;;-3.20;99.90;;;;;;5063474;28;20050;-87
2021/12/25 03:53:09;;;;;;;0.10;0.10;;;-3.30;99.90;;;;;;5051804;28;20041;-87
2021/12/25 03:58:14;;;;;;;5.03;0.40;;;-3.20;99.90;;;;;;5074722;28;20101;-87
2021/12/25 04:00:42;;;;;;;0.30;0.30;;;-3.30;99.90;;;;;;5065261;28;20086;-86
2021/12/25 04:03:15;;;;;;;0.70;0.45;;;-3.40;99.90;;;;;;5073229;28;20059;-86
2021/12/25 04:05:44;;;;;;;0.20;0.20;;;-2.70;99.90;;;;;;5057465;28;20553;-87
2021/12/25 04:08:14;;;;;;;0.10;0.10;;;-3.40;99.90;;;;;;5074357;28;20051;-86
2021/12/25 04:10:44;;;;;;;0.20;0.20;;;-3.50;99.90;;;;;;5060815;28;20495;-87
2021/12/25 04:13:15;;;;;;;1.98;1.00;;;-3.50;99.90;;;;;;5074728;28;20046;-87
2021/12/25 04:15:42;;;;;;;0.50;0.40;;;-3.50;99.90;;;;;;5061122;28;20086;-88
2021/12/25 04:18:09;;;;;;;1.92;0.50;;;-3.50;99.90;;;;;;5077134;28;20056;-87
2021/12/25 04:20:35;;;;;;;0.52;0.30;;;-3.50;99.90;;;;;;5050892;28;20058;-87
2021/12/25 04:23:05;;;;;;;4.82;0.30;;;-3.60;99.90;;;;;;5058406;28;20048;-88
2021/12/25 04:25:34;;;;;;;0.47;0.47;;;-3.60;99.90;;;;;;5060303;28;20040;-87
2021/12/25 04:28:11;;;;;;;0.98;0.98;;;-3.00;99.90;;;;;;5074946;28;20056;-87
2021/12/25 05:06:09;;;;;;;0.98;0.95;;;-3.80;99.90;;;;;;5047606;28;20117;-87
2021/12/25 05:08:34;;;;;;;0.30;0.30;;;-3.80;99.90;;;;;;5074326;28;20110;-87
2021/12/25 05:11:00;;;;;;;1.07;0.50;;;-3.80;99.90;;;;;;5088787;28;20052;-86
2021/12/25 05:13:26;;;;;;;1.63;1.00;;;-3.90;99.90;;;;;;5090782;28;20156;-87
2021/12/25 05:15:52;;;;;;;0.22;0.22;;;-2.90;99.90;;;;;;5048805;28;20074;-87
2021/12/25 05:18:18;;;;;;;0.85;0.85;;;-3.90;99.90;;;;;;5073869;28;20044;-87
2021/12/25 05:20:43;;;;;;;0.40;0.30;;;-3.90;99.90;;;;;;5043560;28;20053;-87
2021/12/25 05:23:09;;;;;;;6.90;1.10;;;-3.90;99.90;;;;;;5055079;28;20048;-88
2021/12/25 05:25:36;;;;;;;0.10;0.10;;;-2.80;99.90;;;;;;5069175;28;20109;-87
2021/12/25 05:28:03;;;;;;;0.10;0.10;;;-3.90;99.90;;;;;;5057558;28;20293;-87
2021/12/25 05:30:30;;;;;;;7.63;0.70;;;-3.90;99.90;;;;;;5064373;28;20041;-87
2021/12/25 05:32:57;;;;;;;0.10;0.10;;;-4.00;99.90;;;;;;5070577;28;20093;-86
2021/12/25 05:35:23;;;;;;;;;;;-3.90;99.90;;;;;;5066718;28;20441;-87
2021/12/25 05:37:51;;;;;;;0.40;0.40;;;-3.90;99.90;;;;;;5070103;28;19928;-86
2021/12/25 05:40:17;;;;;;;0.10;0.10;;;-4.00;99.90;;;;;;5069740;28;20045;-87
2021/12/25 05:42:43;;;;;;;1.33;1.23;;;-4.00;99.90;;;;;;5086619;28;20048;-87
2021/12/25 05:45:10;;;;;;;0.10;0.10;;;-4.00;99.90;;;;;;5047335;28;20490;-86
2021/12/25 05:47:36;;;;;;;0.10;0.10;;;-4.00;99.90;;;;;;5054253;28;20045;-86
2021/12/25 05:50:02;;;;;;;0.10;0.10;;;-3.70;99.90;;;;;;5060729;28;20044;-87
2021/12/25 05:52:27;;;;;;;0.22;0.22;;;-3.20;99.90;;;;;;5053080;28;20063;-87
2021/12/25 05:54:53;;;;;;;0.10;0.10;;;-4.10;99.90;;;;;;5073778;28;20112;-87
2021/12/25 05:57:19;;;;;;;0.30;0.30;;;-4.00;99.90;;;;;;5040287;28;20146;-87
2021/12/25 05:59:44;;;;;;;0.10;0.10;;;-4.10;99.90;;;;;;5074381;28;20056;-87
2021/12/25 06:02:12;;;;;;;0.17;0.17;;;-4.10;99.90;;;;;;5041653;28;20043;-86
2021/12/25 06:04:38;;;;;;;0.32;0.30;;;-4.10;99.90;;;;;;5072763;28;20059;-86
2021/12/25 06:07:04;;;;;;;0.10;0.10;;;-4.10;99.90;;;;;;5061455;28;20045;-86
2021/12/25 06:09:30;;;;;;;2.83;1.17;;;-4.10;99.90;;;;;;5062297;28;20047;-86
2021/12/25 06:11:56;;;;;;;0.30;0.13;;;-4.20;99.90;;;;;;5055723;28;20403;-87
2021/12/25 06:14:22;;;;;;;0.20;0.20;;;-4.20;99.90;;;;;;5074818;28;20049;-87
2021/12/25 06:16:49;;;;;;;0.13;0.13;;;-4.20;99.90;;;;;;5064328;28;20098;-88
2021/12/25 06:19:15;;;;;;;0.20;0.20;;;-4.20;99.90;;;;;;5066080;28;20039;-86
2021/12/25 06:21:42;;;;;;;0.65;0.65;;;-4.00;99.90;;;;;;5057894;28;20044;-87
2021/12/25 06:24:08;;;;;;;0.20;0.20;;;-4.20;99.90;;;;;;5072052;28;20140;-86
2021/12/25 06:26:36;;;;;;;0.52;0.28;;;-4.30;99.90;;;;;;5048934;28;20474;-86
2021/12/25 06:29:02;;;;;;;0.20;0.20;;;-4.30;99.90;;;;;;5050308;28;20059;-86
2021/12/25 06:31:28;;;;;;;0.08;0.08;;;-3.50;99.90;;;;;;5078119;28;20042;-86
2021/12/25 06:33:54;;;;;;;0.10;0.10;;;-3.70;99.90;;;;;;5064306;28;20460;-86
2021/12/25 06:36:20;;;;;;;1.35;1.25;;;-4.30;99.90;;;;;;5081653;28;20294;-89
2021/12/25 06:38:46;;;;;;;0.15;0.15;;;-4.40;99.90;;;;;;5076648;28;20032;-86
2021/12/25 06:41:12;;;;;;;0.77;0.60;;;-4.00;99.90;;;;;;5052398;28;20128;-87
2021/12/25 06:43:39;;;;;;;0.28;0.28;;;-4.40;99.90;;;;;;5059734;28;20056;-86
2021/12/25 06:46:05;;;;;;;0.20;0.20;;;-4.40;99.90;;;;;;5062591;28;20049;-86
2021/12/25 06:48:31;;;;;;;0.20;0.20;;;-4.40;99.90;;;;;;5076377;28;20055;-86
2021/12/25 06:50:56;;;;;;;0.60;0.17;;;-4.50;99.90;;;;;;5070366;28;20037;-86
2021/12/25 06:53:22;;;;;;;0.40;0.40;;;-4.50;99.90;;;;;;5075889;28;20040;-88
2021/12/25 06:55:48;;;;;;;0.30;0.30;;;-4.50;99.90;;;;;;5046704;28;20041;-86
2021/12/25 06:58:14;;;;;;;0.20;0.20;;;-4.50;99.90;;;;;;5074997;28;20056;-86
2021/12/25 07:00:40;;;;;;;3.20;0.25;;;-4.50;99.90;;;;;;5061517;28;20045;-86
2021/12/25 07:03:05;;;;;;;0.25;0.25;;;-4.50;99.90;;;;;;5071573;28;20050;-89
2021/12/25 07:05:31;;;;;;;0.30;0.30;;;-4.60;99.90;;;;;;5050546;28;20049;-90
2021/12/25 07:07:57;;;;;;;0.30;0.30;;;-4.60;99.90;;;;;;5048215;28;20130;-88
2021/12/25 07:10:23;;;;;;;0.47;0.47;;;-4.60;99.90;;;;;;5057600;28;20041;-89
2021/12/25 07:12:51;;;;;;;4.88;0.30;;;-4.60;99.90;;;;;;5063696;28;20052;-86
2021/12/25 07:15:17;;;;;;;0.08;0.08;;;-4.00;99.90;;;;;;5071695;28;20479;-86
2021/12/25 07:17:43;;;;;;;0.10;0.10;;;-4.60;99.90;;;;;;5059351;28;20055;-93
2021/12/25 07:20:10;;;;;;;0.25;0.25;;;-4.60;99.90;;;;;;5051061;28;20036;-84
2021/12/25 07:22:36;;;;;;;0.52;0.22;;;-4.60;99.90;;;;;;5036552;28;20052;-86
2021/12/25 07:25:05;;;;;;;0.47;0.47;;;-4.60;99.90;;;;;;5057995;28;20070;-86
2021/12/25 07:27:30;;;;;;;0.60;0.30;;;-4.60;99.90;;;;;;5064045;28;20067;-87
2021/12/25 07:29:56;;;;;;;2.07;1.27;;;-4.60;99.90;;;;;;5058774;28;20483;-87
2021/12/25 07:32:22;;;;;;;6.32;0.52;;;-4.60;99.90;;;;;;5070365;28;20047;-84
2021/12/25 07:34:48;;;;;;;0.10;0.10;;;-4.60;99.90;;;;;;5089674;28;20193;-95
2021/12/25 07:37:15;;;;;;;0.70;0.70;;;-4.70;99.90;;;;;;5066767;28;20040;-96
2021/12/25 07:39:41;;;;;;;0.30;0.20;;;-4.70;99.90;;;;;;5055695;28;20064;-95
2021/12/25 07:42:08;;;;;;;0.20;0.20;;;-4.70;99.90;;;;;;5054054;28;20057;-86
2021/12/25 07:44:36;;;;;;;0.05;0.05;;;-4.70;99.90;;;;;;5056535;28;20476;-94
2021/12/25 07:47:08;;;;;;;0.20;0.20;;;-4.70;99.90;;;;;;5069985;28;20083;-88
2021/12/25 07:49:33;;;;;;;0.20;0.20;;;-4.70;99.90;;;;;;5053258;28;20116;-89
2021/12/25 07:51:59;;;;;;;0.33;0.33;;;-4.70;99.90;;;;;;5062172;28;20115;-87
2021/12/25 07:54:25;;;;;;;0.10;0.10;;;-4.70;99.90;;;;;;5070734;28;20117;-87
2021/12/25 07:56:50;;;;;;;0.10;0.10;;;-4.70;99.90;;;;;;5056868;28;20044;-86
2021/12/25 07:59:16;;;;;;;0.50;0.50;;;-4.70;99.90;;;;;;5077494;28;20074;-87
2021/12/25 08:01:42;;;;;;;0.38;0.38;;;-4.70;99.90;;;;;;5047054;28;20053;-91
2021/12/25 08:04:10;;;;;;;2.67;0.35;;;-4.70;99.90;;;;;;5054501;28;20044;-88
2021/12/25 08:06:35;;;;;;;15.02;1.10;;;-4.70;99.90;;;;;;5067346;28;20045;-88
2021/12/25 08:09:04;;;;;;;0.10;0.10;;;-4.70;99.90;;;;;;5069121;28;20049;-90
2021/12/25 08:11:30;;;;;;;0.20;0.20;;;-4.70;99.90;;;;;;5028313;28;20041;-86
2021/12/25 08:13:56;;;;;;;0.10;0.10;;;-4.70;99.90;;;;;;5048981;28;20050;-85
2021/12/25 08:16:22;;;;;;;0.10;0.10;;;-3.80;99.90;;;;;;5052006;28;20119;-85
2021/12/25 08:18:48;;;;;;;0.53;0.53;;;-4.70;99.90;;;;;;5076256;28;20041;-89
2021/12/25 08:21:14;;;;;;;1.00;0.93;;;-4.60;99.90;;;;;;5075254;28;20076;-87
2021/12/25 08:23:41;;;;;;;0.10;0.10;;;-4.60;99.90;;;;;;5053219;28;20052;-82
2021/12/25 08:26:08;;;;;;;0.38;0.38;;;-4.60;99.90;;;;;;5053856;28;20079;-86
2021/12/25 08:28:33;;;;;;;;;;;-4.60;99.90;;;;;;5051206;28;20060;-91
2021/12/25 08:30:59;;;;;;;0.63;0.63;;;-4.60;99.90;;;;;;5054443;28;19979;-87
2021/12/25 08:33:25;;;;;;;0.33;0.33;;;-3.80;99.90;;;;;;5049751;28;20036;-87
2021/12/25 08:35:51;;;;;;;1.07;0.97;;;-4.40;99.90;;;;;;5049936;28;20140;-87
2021/12/25 08:38:17;;;;;;;0.22;0.22;;;-4.30;99.90;;;;;;5048866;28;20090;-85
2021/12/25 08:40:43;;;;;;;0.13;0.13;;;-3.70;99.90;;;;;;5069283;28;20082;-85
2021/12/25 08:43:10;;;;;;;0.47;0.47;;;-4.00;99.90;;;;;;5072199;28;20059;-86
2021/12/25 08:45:49;;;;;;;0.20;0.20;;;-3.70;99.90;;;;;;5056548;28;20048;-91
2021/12/25 08:48:23;;;;;;;0.43;0.43;;;-3.40;99.90;;;;;;5055489;28;20045;-85
2021/12/25 08:50:53;;;;;;;0.40;0.40;;;-3.10;99.90;;;;;;5073241;28;20072;-86
2021/12/25 08:53:21;;;;;;;0.20;0.20;;;-2.10;99.90;;;;;;5072946;28;20052;-86
2021/12/25 08:55:48;;;;;;;1.42;0.55;;;-2.00;99.90;;;;;;5068429;28;20155;-85
2021/12/25 08:58:15;;;;;;;0.32;0.32;;;-2.20;99.90;;;;;;5054698;28;20056;-87
2021/12/25 09:00:41;;;;;;;0.20;0.20;;;-1.00;99.90;;;;;;5085526;28;20048;-87
2021/12/25 09:03:07;;;;;;;0.20;0.20;;;-1.00;99.90;;;;;;5074853;28;20040;-85
2021/12/25 09:05:33;;;;;;;3.88;0.30;;;-1.50;99.90;;;;;;5072280;28;20371;-87
2021/12/25 09:08:00;;;;;;;0.63;0.63;;;-1.10;99.90;;;;;;5051548;28;20072;-87
2021/12/25 09:10:28;;;;;;;0.55;0.40;;;-0.90;99.90;;;;;;5059745;28;20156;-86
2021/12/25 09:12:54;;;;;;;2.83;1.50;;;-0.60;99.90;;;;;;5055635;28;20076;-86
2021/12/25 09:15:20;;;;;;;0.40;0.40;;;-0.60;99.90;;;;;;5063483;28;20048;-88
2021/12/25 09:17:46;;;;;;;0.90;0.90;;;-0.30;99.90;;;;;;5046235;28;20041;-86
2021/12/25 09:20:16;;;;;;;0.50;0.50;;;-0.40;99.90;;;;;;5078961;28;20123;-87
2021/12/25 09:22:41;;;;;;;1.60;0.25;;;-0.20;99.90;;;;;;5069810;28;20059;-91
2021/12/25 09:25:07;;;;;;;0.17;0.10;;;-0.40;99.90;;;;;;5072938;28;20044;-87
2021/12/25 09:27:33;;;;;;;2.15;0.35;;;-0.60;99.90;;;;;;5079057;28;20126;-87
2021/12/25 09:29:59;;;;;;;0.25;0.22;;;-0.80;99.90;;;;;;5070568;28;20187;-87
2021/12/25 09:32:25;;;;;;;0.17;0.17;;;-0.90;99.90;;;;;;5053544;28;20054;-88
2021/12/25 09:34:51;;;;;;;1.10;0.75;;;-1.00;99.90;;;;;;5065548;28;20040;-85
2021/12/25 09:37:18;;;;;;;0.20;0.20;;;-1.30;99.90;;;;;;5066903;28;20048;-89
2021/12/25 09:39:45;;;;;;;0.70;0.35;;;-1.30;99.90;;;;;;5082583;28;20516;-86
2021/12/25 09:42:11;;;;;;;0.38;0.38;;;-1.30;99.90;;;;;;5067430;28;20077;-86
2021/12/25 09:44:37;;;;;;;1.05;0.40;;;-1.40;99.90;;;;;;5048050;28;20053;-85
2021/12/25 09:47:03;;;;;;;0.50;0.30;;;-1.40;99.90;;;;;;5071762;28;20443;-88
2021/12/25 09:49:29;;;;;;;0.20;0.17;;;-1.30;99.90;;;;;;5071571;28;20088;-87
2021/12/25 09:51:56;;;;;;;0.68;0.38;;;-1.10;99.90;;;;;;5070222;28;20072;-88
2021/12/25 09:54:21;;;;;;;0.90;0.28;;;-0.70;99.90;;;;;;5042179;28;20040;-88
2021/12/25 09:56:49;;;;;;;0.30;0.30;;;-1.00;99.90;;;;;;5077708;28;20063;-86
2021/12/25 09:59:16;;;;;;;0.32;0.32;;;-1.00;99.90;;;;;;5068321;28;20486;-87
2021/12/25 10:01:44;;;;;;;0.30;0.30;;;-1.00;99.90;;;;;;5067205;28;20076;-85
2021/12/25 10:04:39;;;;;;;0.00;0.00;;;-1.00;99.90;;;;;;5069778;28;20554;-86
2021/12/25 10:07:25;;;;;;;0.30;0.30;;;-1.00;99.90;;;;;;5048569;28;20041;-86
2021/12/25 10:10:01;;;;;;;0.60;0.20;;;-1.00;99.90;;;;;;5075979;28;20040;-93
2021/12/25 10:12:41;;;;;;;1.98;1.33;;;-0.90;99.90;;;;;;5094470;28;20044;-88
2021/12/25 10:15:10;;;;;;;0.75;0.30;;;-0.80;99.90;;;;;;5077138;28;20052;-83
2021/12/25 10:17:44;;;;;;;0.43;0.43;;;-0.40;99.90;;;;;;5075108;28;20547;-84
2021/12/25 10:20:22;;;;;;;0.30;0.30;;;-0.80;99.90;;;;;;5080164;28;20042;-85
2021/12/25 10:23:09;;;;;;;0.30;0.30;;;-0.70;99.90;;;;;;5071126;28;20049;-84
2021/12/25 10:25:45;;;;;;;1.48;0.32;;;-0.60;99.90;;;;;;5072248;28;20056;-85
2021/12/25 10:28:13;;;;;;;0.30;0.30;;;-0.60;99.90;;;;;;5061905;28;20540;-88
2021/12/25 10:30:51;;;;;;;0.45;0.40;;;-0.50;99.90;;;;;;5066851;28;20048;-87
2021/12/25 10:33:28;;;;;;;0.50;0.30;;;-0.30;99.90;;;;;;5069259;28;20072;-87
2021/12/25 10:35:55;;;;;;;;;;;-0.20;99.90;;;;;;5064766;28;20453;-85
2021/12/25 10:38:24;;;;;;;0.35;0.15;;;0.00;99.90;;;;;;5080047;28;20029;-83
2021/12/25 10:41:14;;;;;;;0.90;0.43;;;0.10;99.90;;;;;;5083307;28;20048;-84
2021/12/25 10:43:42;;;;;;;0.63;0.40;;;0.30;99.90;;;;;;5072914;28;20063;-83
2021/12/25 10:46:09;;;;;;;1.08;0.60;;;0.70;99.90;;;;;;5078878;28;20074;-88
2021/12/25 10:48:34;;;;;;;0.68;0.43;;;0.60;99.90;;;;;;5078862;28;20053;-85
2021/12/25 10:51:00;;;;;;;0.20;0.20;;;0.80;99.90;;;;;;5071076;28;20048;-87
2021/12/25 10:53:40;;;;;;;0.30;0.30;;;1.10;99.90;;;;;;5072914;28;20106;-87
2021/12/25 10:56:14;;;;;;;0.70;0.40;;;1.10;99.90;;;;;;5076322;28;20048;-86
2021/12/25 10:58:44;;;;;;;0.43;0.43;;;1.90;99.90;;;;;;5080118;28;20145;-86
2021/12/25 11:01:12;;;;;;;0.90;0.43;;;1.80;99.90;;;;;;5074648;28;20076;-84
2021/12/25 11:03:44;;;;;;;1.00;0.60;;;1.90;99.90;;;;;;5080051;28;20171;-87
2021/12/25 11:06:16;;;;;;;1.00;0.60;;;1.90;99.90;;;;;;5050044;28;20052;-84
2021/12/25 11:08:42;;;;;;;1.08;0.50;;;1.90;99.90;;;;;;5062806;28;20048;-85
2021/12/25 11:11:17;;;;;;;0.43;0.43;;;2.00;99.90;;;;;;5079777;28;20503;-84
2021/12/25 11:13:55;;;;;;;0.45;0.40;;;2.30;99.90;;;;;;5057273;28;20052;-83
2021/12/25 11:16:35;;;;;;;2.13;0.43;;;2.60;99.90;;;;;;5052848;28;20138;-86
2021/12/25 11:19:15;;;;;;;0.50;0.45;;;2.80;99.90;;;;;;5074170;28;20049;-85
2021/12/25 11:21:44;;;;;;;3.25;0.40;;;3.10;99.90;;;;;;5043850;28;20056;-87
2021/12/25 11:24:17;;;;;;;0.57;0.50;;;3.20;99.90;;;;;;5056715;28;20132;-86
2021/12/25 11:26:47;;;;;;;0.65;0.35;;;3.30;99.90;;;;;;5055104;28;20110;-86
2021/12/25 11:29:16;;;;;;;2.22;1.25;;;3.40;99.90;;;;;;5064968;28;20441;-86
2021/12/25 11:31:43;;;;;;;1.50;1.02;;;4.00;99.90;;;;;;5032624;28;20073;-84
2021/12/25 11:34:09;;;;;;;2.70;0.50;;;3.90;99.90;;;;;;5048845;28;20501;-82
2021/12/25 11:36:45;;;;;;;1.15;0.52;;;4.10;99.90;;;;;;5065948;28;20513;-82
2021/12/25 11:39:11;;;;;;;0.80;0.57;;;4.00;99.90;;;;;;5047155;28;20158;-86
2021/12/25 11:41:39;;;;;;;2.47;0.52;;;4.10;99.90;;;;;;5050689;28;20581;-83
2021/12/25 11:44:25;;;;;;;2.33;0.57;;;3.90;99.90;;;;;;5053453;28;20061;-83
2021/12/25 11:46:53;;;;;;;0.57;0.40;;;4.10;99.90;;;;;;5056980;28;20056;-83
2021/12/25 11:49:19;;;;;;;3.75;0.65;;;4.00;99.90;;;;;;5072391;28;20052;-83
2021/12/25 11:51:46;;;;;;;0.47;0.47;;;4.20;99.90;;;;;;5072687;28;20064;-83
2021/12/25 11:59:46;;;;;;;1.13;0.52;;;4.20;99.90;;;;;;5089202;28;20059;-84
2021/12/25 12:02:32;;;;;;;0.90;0.50;;;4.30;99.90;;;;;;5071785;28;20479;-83
2021/12/25 12:05:37;;;;;;;0.90;0.52;;;4.30;99.90;;;;;;5055855;28;20067;-82
2021/12/25 12:08:12;;;;;;;1.25;0.70;;;4.10;99.90;;;;;;5050653;28;20091;-86
2021/12/25 12:10:44;;;;;;;0.77;0.70;;;4.20;99.90;;;;;;5067947;28;20066;-83
2021/12/25 12:13:31;;;;;;;0.95;0.40;;;4.20;99.90;;;;;;5087906;28;20113;-84
2021/12/25 12:16:00;;;;;;;0.52;0.52;;;4.30;99.90;;;;;;5089020;28;20045;-83
2021/12/25 12:20:57;;;;;;;1.20;0.40;;;4.10;99.90;;;;;;5072243;28;20453;-83
2021/12/25 12:23:40;;;;;;;0.98;0.52;;;4.60;99.90;;;;;;5054969;28;20037;-83
2021/12/25 12:26:10;;;;;;;1.77;0.57;;;4.60;99.40;;;;;;5055161;28;20493;-84
2021/12/25 12:28:47;;;;;;;0.95;0.40;;;4.80;99.90;;;;;;5072047;28;20110;-83
2021/12/25 12:31:47;;;;;;;0.73;0.47;;;4.90;95.10;;;;;;5088586;28;20109;-83
2021/12/25 12:34:34;;;;;;;0.82;0.40;;;4.70;89.30;;;;;;5060086;28;20060;-84
2021/12/25 12:37:15;;;;;;;0.40;0.40;;;4.60;89.30;;;;;;5055169;28;20106;-83
2021/12/25 12:39:43;;;;;;;2.28;0.68;;;4.50;95.20;;;;;;5055240;28;20162;-83
2021/12/25 12:42:12;;;;;;;2.67;0.88;;;4.50;99.90;;;;;;5088063;28;20063;-83
2021/12/25 12:44:39;;;;;;;2.08;0.57;;;4.50;99.90;;;;;;5088608;28;20045;-83
2021/12/25 12:47:06;;;;;;;0.35;0.35;;;4.90;99.90;;;;;;5072036;28;20048;-83
2021/12/25 12:49:38;;;;;;;0.50;0.50;;;4.50;99.90;;;;;;5088291;28;20437;-83
2021/12/25 12:52:09;;;;;;;1.17;0.50;;;4.60;99.90;;;;;;5055253;28;20105;-83
2021/12/25 12:54:51;;;;;;;0.65;0.63;;;4.50;99.90;;;;;;5088932;28;20052;-84
2021/12/25 12:57:24;;;;;;;3.00;0.50;;;4.40;99.90;;;;;;5088116;28;20040;-84
2021/12/25 13:00:03;;;;;;;0.52;0.52;;;4.30;99.90;;;;;;5088633;28;20052;-83
2021/12/25 13:02:37;;;;;;;0.95;0.60;;;4.10;99.90;;;;;;5088211;28;20265;-84
2021/12/25 13:05:04;;;;;;;0.40;0.40;;;4.20;99.90;;;;;;5088624;28;20401;-84
2021/12/25 13:07:32;;;;;;;0.60;0.32;;;4.00;99.90;;;;;;5088081;28;20036;-84
2021/12/25 13:10:10;;;;;;;0.30;0.28;;;4.00;99.90;;;;;;5088519;28;20052;-84
2021/12/25 13:12:43;;;;;;;0.50;0.50;;;3.90;99.90;;;;;;5088576;28;20138;-84
2021/12/25 13:15:26;;;;;;;0.52;0.40;;;4.00;99.90;;;;;;5054990;28;20394;-84
2021/12/25 13:17:58;;;;;;;0.93;0.50;;;3.80;99.90;;;;;;5088260;28;20048;-84
2021/12/25 13:20:35;;;;;;;0.90;0.90;;;3.80;99.90;;;;;;5055023;28;20063;-84
2021/12/25 13:23:04;;;;;;;0.88;0.50;;;3.80;99.90;;;;;;5058813;28;20487;-84
2021/12/25 13:25:30;;;;;;;0.47;0.40;;;4.20;99.90;;;;;;5076210;28;20445;-84
2021/12/25 13:28:03;;;;;;;0.70;0.63;;;3.80;99.90;;;;;;5092626;28;20052;-84
2021/12/25 13:30:31;;;;;;;0.85;0.60;;;3.70;99.90;;;;;;5076028;28;20048;-84
2021/12/25 13:33:10;;;;;;;0.55;0.50;;;3.90;99.90;;;;;;5075454;28;20521;-84
2021/12/25 13:35:36;;;;;;;0.50;0.50;;;4.00;99.90;;;;;;5091589;28;20101;-84
2021/12/25 13:38:02;;;;;;;1.07;0.70;;;4.10;99.90;;;;;;5092023;28;20044;-84
2021/12/25 13:40:29;;;;;;;1.42;0.60;;;4.00;99.90;;;;;;5074835;28;20040;-84
2021/12/25 13:43:02;;;;;;;0.38;0.38;;;4.10;99.90;;;;;;5058043;28;20392;-84
2021/12/25 13:45:28;;;;;;;0.80;0.40;;;3.90;99.90;;;;;;5091692;28;20053;-85
2021/12/25 13:47:56;;;;;;;2.43;0.73;;;3.80;99.90;;;;;;5074777;28;20135;-84
2021/12/25 13:50:25;;;;;;;1.25;0.40;;;3.60;99.90;;;;;;5074040;28;20080;-84
2021/12/25 13:53:16;;;;;;;0.40;0.38;;;3.50;99.90;;;;;;5058421;28;20084;-84
2021/12/25 13:55:42;;;;;;;1.30;0.68;;;3.60;99.90;;;;;;5058595;28;20080;-84
2021/12/25 13:58:12;;;;;;;0.90;0.60;;;3.30;99.90;;;;;;5091490;28;20045;-84
2021/12/25 14:00:44;;;;;;;2.05;0.50;;;3.30;99.90;;;;;;5091257;28;20048;-84
2021/12/25 14:03:12;;;;;;;0.35;0.35;;;3.90;99.90;;;;;;5093538;28;20071;-83
2021/12/25 14:05:45;;;;;;;2.83;0.60;;;3.20;99.90;;;;;;5058323;28;20114;-84
2021/12/25 14:08:12;;;;;;;0.90;0.70;;;3.60;99.90;;;;;;5057985;28;20044;-84
2021/12/25 14:10:39;;;;;;;;;;;3.40;99.90;;;;;;5091585;28;20086;-85
2021/12/25 14:13:12;;;;;;;0.43;0.30;;;3.00;89.30;;;;;;5074725;28;19924;-84
2021/12/25 14:15:42;;;;;;;0.55;0.28;;;3.10;99.90;;;;;;5075248;28;20135;-84
2021/12/25 14:18:08;;;;;;;1.70;0.77;;;3.40;99.90;;;;;;5091167;28;20048;-84
2021/12/25 14:20:36;;;;;;;3.20;0.40;;;2.50;99.90;;;;;;5074084;28;20056;-85